createdAt,value
2023-04-27T00:01:13.376Z,3.54
2023-04-27T00:03:41.342Z,3.46
2023-04-27T00:06:09.815Z,3.68
2023-04-27T00:08:36.726Z,3.53
2023-04-27T00:11:03.583Z,3.74
2023-04-27T00:13:30.500Z,3.89
2023-04-27T00:15:56.961Z,3.91
2023-04-27T00:18:23.374Z,3.76
2023-04-27T00:20:50.090Z,3.48
2023-04-27T00:23:16.800Z,3.72
2023-04-27T00:25:43.288Z,3.43
2023-04-27T00:28:09.886Z,3.52
2023-04-27T00:30:36.368Z,3.12
2023-04-27T00:33:02.892Z,3.56
2023-04-27T00:35:29.655Z,3.70
2023-04-27T00:37:56.372Z,3.64
2023-04-27T00:40:22.872Z,3.70
2023-04-27T00:42:49.442Z,3.36
2023-04-27T00:45:15.986Z,3.66
2023-04-27T00:47:43.318Z,3.49
2023-04-27T00:50:11.933Z,3.34
2023-04-27T00:52:39.682Z,3.63
2023-04-27T00:55:07.222Z,3.66
2023-04-27T00:57:34.248Z,3.70
2023-04-27T01:00:02.146Z,3.51
2023-04-27T01:02:30.293Z,3.59
2023-04-27T01:04:57.525Z,3.50
2023-04-27T01:07:26.724Z,3.70
2023-04-27T01:09:53.222Z,3.54
2023-04-27T01:12:19.794Z,3.65
2023-04-27T01:14:46.309Z,3.74
2023-04-27T01:17:13.985Z,3.25
2023-04-27T01:19:40.535Z,3.24
2023-04-27T01:22:07.213Z,3.64
2023-04-27T01:24:33.890Z,3.57
2023-04-27T01:27:01.592Z,3.73
2023-04-27T01:29:28.379Z,3.32
2023-04-27T01:31:54.901Z,3.70
2023-04-27T01:34:21.677Z,3.66
2023-04-27T01:36:48.199Z,3.68
2023-04-27T01:39:15.323Z,3.46
2023-04-27T01:41:42.084Z,3.47
2023-04-27T01:44:08.686Z,3.51
2023-04-27T01:46:35.255Z,3.45
2023-04-27T01:49:01.835Z,3.50
2023-04-27T01:51:28.374Z,3.56
2023-04-27T01:53:54.892Z,3.40
2023-04-27T01:56:21.376Z,3.38
2023-04-27T01:58:47.883Z,3.28
2023-04-27T02:01:14.444Z,3.48
2023-04-27T02:03:41.778Z,3.09
2023-04-27T02:06:08.436Z,2.95
2023-04-27T02:08:35.039Z,3.36
2023-04-27T02:11:01.572Z,3.45
2023-04-27T02:13:28.013Z,3.43
2023-04-27T02:15:56.049Z,3.49
2023-04-27T02:18:22.995Z,3.18
2023-04-27T02:20:49.786Z,3.23
2023-04-27T02:23:16.272Z,3.48
2023-04-27T02:25:46.463Z,3.63
2023-04-27T02:28:14.261Z,3.57
2023-04-27T02:30:41.316Z,3.09
2023-04-27T02:33:08.085Z,2.79
2023-04-27T02:35:34.797Z,3.13
2023-04-27T02:38:01.566Z,3.13
2023-04-27T02:40:28.277Z,3.04
2023-04-27T02:42:54.742Z,3.22
2023-04-27T02:45:21.218Z,3.29
2023-04-27T02:47:47.791Z,3.15
2023-04-27T02:50:14.387Z,3.30
2023-04-27T02:52:40.833Z,3.32
2023-04-27T02:55:07.698Z,3.28
2023-04-27T02:57:34.240Z,2.93
2023-04-27T03:00:00.828Z,2.98
2023-04-27T03:02:30.625Z,3.00
2023-04-27T03:04:59.162Z,2.83
2023-04-27T03:07:25.755Z,2.73
2023-04-27T03:09:52.193Z,2.85
2023-04-27T03:12:18.721Z,2.74
2023-04-27T03:14:45.232Z,2.86
2023-04-27T03:17:11.697Z,2.90
2023-04-27T03:19:38.214Z,2.98
2023-04-27T03:22:04.694Z,2.97
2023-04-27T03:24:31.138Z,2.60
2023-04-27T03:26:57.644Z,2.68
2023-04-27T03:29:24.110Z,2.77
2023-04-27T03:31:50.748Z,2.49
2023-04-27T03:34:17.630Z,2.50
2023-04-27T03:36:44.133Z,2.28
2023-04-27T03:39:10.783Z,2.63
2023-04-27T03:41:37.377Z,2.34
2023-04-27T03:44:04.180Z,2.50
2023-04-27T03:46:33.316Z,2.61
2023-04-27T03:48:59.956Z,2.46
2023-04-27T03:51:26.995Z,2.31
2023-04-27T03:53:53.440Z,2.26
2023-04-27T03:56:19.918Z,2.37
2023-04-27T03:58:46.768Z,2.57
2023-04-27T04:01:14.735Z,2.58
2023-04-27T04:03:41.472Z,2.28
2023-04-27T04:06:08.288Z,2.15
2023-04-27T04:08:34.781Z,2.24
2023-04-27T04:11:01.489Z,2.10
2023-04-27T04:13:27.935Z,2.40
2023-04-27T04:16:05.153Z,2.23
2023-04-27T04:18:32.227Z,2.03
2023-04-27T04:20:58.777Z,2.39
2023-04-27T04:23:25.850Z,2.55
2023-04-27T04:25:52.653Z,2.47
2023-04-27T04:28:19.130Z,2.80
2023-04-27T04:30:45.685Z,2.79
2023-04-27T04:33:12.206Z,2.60
2023-04-27T04:35:41.580Z,2.45
2023-04-27T04:38:10.078Z,2.48
2023-04-27T04:40:39.870Z,2.05
2023-04-27T04:43:06.743Z,2.15
2023-04-27T04:45:33.378Z,2.26
2023-04-27T04:48:02.198Z,2.73
2023-04-27T04:50:29.101Z,2.71
2023-04-27T04:52:55.894Z,2.98
2023-04-27T04:55:22.435Z,2.76
2023-04-27T04:57:48.857Z,2.53
2023-04-27T05:00:15.846Z,3.16
2023-04-27T05:02:42.854Z,2.94
2023-04-27T05:05:10.384Z,3.16
2023-04-27T05:07:36.934Z,2.87
2023-04-27T05:10:07.140Z,3.16
2023-04-27T05:12:33.611Z,2.88
2023-04-27T05:15:00.090Z,3.12
2023-04-27T05:17:26.982Z,3.16
2023-04-27T05:19:53.827Z,3.38
2023-04-27T05:22:22.174Z,3.54
2023-04-27T05:24:48.738Z,2.94
2023-04-27T05:27:15.509Z,3.23
2023-04-27T05:29:42.221Z,3.52
2023-04-27T05:32:09.658Z,3.62
2023-04-27T05:34:37.533Z,3.90
2023-04-27T05:37:03.998Z,4.06
2023-04-27T05:39:30.542Z,4.11
2023-04-27T05:41:57.441Z,4.18
2023-04-27T05:44:28.194Z,4.26
2023-04-27T05:46:55.728Z,4.25
2023-04-27T05:49:22.351Z,4.35
2023-04-27T05:51:48.906Z,4.33
2023-04-27T05:54:15.430Z,4.79
2023-04-27T05:56:50.715Z,5.18
2023-04-27T05:59:17.239Z,5.15
2023-04-27T06:01:43.705Z,5.01
2023-04-27T06:04:10.585Z,4.91
2023-04-27T06:06:37.297Z,5.28
2023-04-27T06:09:04.121Z,5.64
2023-04-27T06:11:30.613Z,5.96
2023-04-27T06:13:57.093Z,6.12
2023-04-27T06:16:23.681Z,6.17
2023-04-27T06:18:51.089Z,5.92
2023-04-27T06:21:21.537Z,6.21
2023-04-27T06:23:48.183Z,6.37
2023-04-27T06:26:17.268Z,6.52
2023-04-27T06:28:45.960Z,7.44
2023-04-27T06:31:13.867Z,7.74
2023-04-27T06:33:40.352Z,7.99
2023-04-27T06:36:07.300Z,8.50
2023-04-27T06:38:33.778Z,9.51
2023-04-27T06:41:00.442Z,8.98
2023-04-27T06:43:26.950Z,8.79
2023-04-27T06:45:53.496Z,10.16
2023-04-27T06:48:20.228Z,10.43
2023-04-27T06:50:47.314Z,10.68
2023-04-27T06:53:13.794Z,11.20
2023-04-27T06:55:46.176Z,10.74
2023-04-27T06:58:14.280Z,10.41
2023-04-27T07:00:40.954Z,10.71
2023-04-27T07:03:07.596Z,11.26
2023-04-27T07:05:34.287Z,10.46
2023-04-27T07:08:04.630Z,10.97
2023-04-27T07:10:33.700Z,11.41
2023-04-27T07:13:00.231Z,11.33
2023-04-27T07:15:26.937Z,11.76
2023-04-27T07:17:54.671Z,11.93
2023-04-27T07:20:21.595Z,11.48
2023-04-27T07:22:49.153Z,12.12
2023-04-27T07:25:15.797Z,12.28
2023-04-27T07:27:42.827Z,11.71
2023-04-27T07:30:13.069Z,12.12
2023-04-27T07:32:42.431Z,12.37
2023-04-27T07:35:10.135Z,12.98
2023-04-27T07:37:38.399Z,12.66
2023-04-27T07:40:14.298Z,11.96
2023-04-27T07:42:42.012Z,12.13
2023-04-27T07:45:10.125Z,12.14
2023-04-27T07:47:37.071Z,12.01
2023-04-27T07:50:04.723Z,12.03
2023-04-27T07:52:31.211Z,12.78
2023-04-27T07:54:57.677Z,12.96
2023-04-27T07:57:27.254Z,12.82
2023-04-27T07:59:53.833Z,12.85
2023-04-27T08:02:20.600Z,13.46
2023-04-27T08:04:48.916Z,13.65
2023-04-27T08:07:17.598Z,12.63
2023-04-27T08:09:44.507Z,14.00
2023-04-27T08:12:10.966Z,13.42
2023-04-27T08:14:37.542Z,13.30
2023-04-27T08:17:04.130Z,13.80
2023-04-27T08:19:30.701Z,14.21
2023-04-27T08:21:57.234Z,13.91
2023-04-27T08:24:23.783Z,12.69
2023-04-27T08:26:50.274Z,12.10
2023-04-27T08:29:27.173Z,12.50
2023-04-27T08:32:01.162Z,13.19
2023-04-27T08:34:29.080Z,13.35
2023-04-27T08:36:56.816Z,13.41
2023-04-27T08:39:24.910Z,13.30
2023-04-27T08:41:51.597Z,12.62
2023-04-27T08:44:18.414Z,13.69
2023-04-27T08:46:45.449Z,13.32
2023-04-27T08:49:13.632Z,14.01
2023-04-27T08:51:43.169Z,14.00
2023-04-27T08:54:09.868Z,14.21
2023-04-27T08:56:36.568Z,14.53
2023-04-27T08:59:16.520Z,14.97
2023-04-27T09:01:48.471Z,14.68
2023-04-27T09:04:17.620Z,14.65
2023-04-27T09:06:44.551Z,14.78
2023-04-27T09:09:23.449Z,14.62
2023-04-27T09:11:52.811Z,14.77
2023-04-27T09:14:23.845Z,14.99
2023-04-27T09:16:57.902Z,13.30
2023-04-27T09:19:27.817Z,13.70
2023-04-27T09:22:11.746Z,14.75
2023-04-27T09:24:38.440Z,15.06
2023-04-27T09:27:07.130Z,14.88
2023-04-27T09:29:37.710Z,15.64
2023-04-27T09:32:21.424Z,15.23
2023-04-27T09:34:48.031Z,15.34
2023-04-27T09:37:15.582Z,15.27
2023-04-27T09:39:43.271Z,14.74
2023-04-27T09:42:13.075Z,15.59
2023-04-27T09:44:39.756Z,15.41
2023-04-27T09:47:07.317Z,14.76
2023-04-27T09:49:34.795Z,15.35
2023-04-27T09:52:02.208Z,15.49
2023-04-27T09:54:34.473Z,14.08
2023-04-27T09:57:36.537Z,15.34
2023-04-27T10:00:20.559Z,15.29
2023-04-27T10:03:07.857Z,16.56
2023-04-27T10:06:17.320Z,17.67
2023-04-27T10:08:45.390Z,18.55
2023-04-27T10:11:15.970Z,17.23
2023-04-27T10:13:54.682Z,16.72
2023-04-27T10:16:22.463Z,16.70
2023-04-27T10:19:02.797Z,17.64
2023-04-27T10:21:30.660Z,16.97
2023-04-27T10:24:08.847Z,16.62
2023-04-27T10:26:38.011Z,16.70
2023-04-27T10:29:09.039Z,15.55
2023-04-27T10:31:36.097Z,16.58
2023-04-27T10:34:17.994Z,17.28
2023-04-27T10:36:45.818Z,16.53
2023-04-27T10:39:47.768Z,16.64
2023-04-27T10:42:28.878Z,16.55
2023-04-27T10:44:58.401Z,16.59
2023-04-27T10:47:41.741Z,16.43
2023-04-27T10:50:11.954Z,16.07
2023-04-27T10:52:43.776Z,15.10
2023-04-27T10:55:21.144Z,16.41
2023-04-27T10:57:48.073Z,16.38
2023-04-27T11:00:22.646Z,15.80
2023-04-27T11:02:49.473Z,15.76
2023-04-27T11:05:25.236Z,16.19
2023-04-27T11:07:53.600Z,15.93
2023-04-27T11:10:21.157Z,15.36
2023-04-27T11:12:47.752Z,16.09
2023-04-27T11:15:14.432Z,15.81
2023-04-27T11:17:41.761Z,15.97
2023-04-27T11:20:09.558Z,16.26
2023-04-27T11:22:46.183Z,15.97
2023-04-27T11:25:13.102Z,16.37
2023-04-27T11:27:41.988Z,17.48
2023-04-27T11:30:22.727Z,16.85
2023-04-27T11:32:50.688Z,16.54
2023-04-27T11:35:18.315Z,16.35
2023-04-27T11:37:45.056Z,16.22
2023-04-27T11:40:14.128Z,16.80
2023-04-27T11:42:43.551Z,16.59
2023-04-27T11:45:13.115Z,17.72
2023-04-27T11:47:46.451Z,17.55
2023-04-27T11:50:13.044Z,18.24
2023-04-27T11:52:40.784Z,18.28
2023-04-27T11:55:10.665Z,17.44
2023-04-27T11:57:38.490Z,17.46
2023-04-27T12:00:11.114Z,17.30
2023-04-27T12:02:38.928Z,16.58
2023-04-27T12:05:07.662Z,17.05
2023-04-27T12:07:34.337Z,16.80
2023-04-27T12:10:01.339Z,16.14
2023-04-27T12:12:28.248Z,16.85
2023-04-27T12:14:54.754Z,16.96
2023-04-27T12:17:21.495Z,17.80
2023-04-27T12:19:47.982Z,18.25
2023-04-27T12:22:19.786Z,18.04
2023-04-27T12:24:46.360Z,17.61
2023-04-27T12:27:13.001Z,17.32
2023-04-27T12:29:39.747Z,17.39
2023-04-27T12:32:06.564Z,16.61
2023-04-27T12:34:33.301Z,17.00
2023-04-27T12:36:59.809Z,17.23
2023-04-27T12:39:26.769Z,17.25
2023-04-27T12:41:54.259Z,17.39
2023-04-27T12:44:21.870Z,16.54
2023-04-27T12:46:48.839Z,17.01
2023-04-27T12:49:16.837Z,17.55
2023-04-27T12:51:43.977Z,17.64
2023-04-27T12:54:12.839Z,17.84
2023-04-27T12:56:40.861Z,18.41
2023-04-27T12:59:07.578Z,18.37
2023-04-27T13:01:34.526Z,17.87
2023-04-27T13:04:06.432Z,17.65
2023-04-27T13:06:33.612Z,17.65
2023-04-27T13:09:00.501Z,17.77
2023-04-27T13:11:27.256Z,18.20
2023-04-27T13:13:54.935Z,18.36
2023-04-27T13:16:22.598Z,18.18
2023-04-27T13:18:49.482Z,18.58
2023-04-27T13:21:17.005Z,17.98
2023-04-27T13:23:43.486Z,16.99
2023-04-27T13:26:09.932Z,16.13
2023-04-27T13:28:36.573Z,16.44
2023-04-27T13:31:08.722Z,16.11
2023-04-27T13:33:43.449Z,17.01
2023-04-27T13:36:12.576Z,18.10
2023-04-27T13:38:39.506Z,18.78
2023-04-27T13:41:06.742Z,18.38
2023-04-27T13:43:33.604Z,17.74
2023-04-27T13:46:02.478Z,17.71
2023-04-27T13:48:30.818Z,17.63
2023-04-27T13:50:58.208Z,17.49
2023-04-27T13:53:26.410Z,17.42
2023-04-27T13:55:55.310Z,17.41
2023-04-27T13:58:25.767Z,17.01
2023-04-27T14:00:53.370Z,16.88
2023-04-27T14:03:20.530Z,16.62
2023-04-27T14:05:48.790Z,16.61
2023-04-27T14:08:15.282Z,16.36
2023-04-27T14:10:42.019Z,16.39
2023-04-27T14:13:08.591Z,17.02
2023-04-27T14:15:37.050Z,16.42
2023-04-27T14:18:06.174Z,17.04
2023-04-27T14:20:34.927Z,16.94
2023-04-27T14:23:04.633Z,16.66
2023-04-27T14:25:34.512Z,16.91
2023-04-27T14:28:04.906Z,16.95
2023-04-27T14:30:32.643Z,17.07
2023-04-27T14:32:59.319Z,17.57
2023-04-27T14:35:26.122Z,17.37
2023-04-27T14:37:53.107Z,17.17
2023-04-27T14:40:20.128Z,17.21
2023-04-27T14:42:47.048Z,17.33
2023-04-27T14:45:22.944Z,17.14
2023-04-27T14:47:50.818Z,17.28
2023-04-27T14:50:17.686Z,17.45
2023-04-27T14:52:44.919Z,17.12
2023-04-27T14:55:13.623Z,16.95
2023-04-27T14:57:40.124Z,17.06
2023-04-27T15:00:09.811Z,17.38
2023-04-27T15:02:38.075Z,17.33
2023-04-27T15:05:05.995Z,16.99
2023-04-27T15:07:32.868Z,17.19
2023-04-27T15:09:59.415Z,17.08
2023-04-27T15:12:26.181Z,17.15
2023-04-27T15:14:53.945Z,16.96
2023-04-27T15:17:20.571Z,17.08
2023-04-27T15:19:47.151Z,16.92
2023-04-27T15:22:16.322Z,16.82
2023-04-27T15:24:42.788Z,16.90
2023-04-27T15:27:10.087Z,16.64
2023-04-27T15:29:37.014Z,16.74
2023-04-27T15:32:04.176Z,17.02
2023-04-27T15:34:31.066Z,17.28
2023-04-27T15:36:59.692Z,17.40
2023-04-27T15:39:27.271Z,17.00
2023-04-27T15:41:53.773Z,17.47
2023-04-27T15:44:20.328Z,17.05
2023-04-27T15:46:47.249Z,17.11
2023-04-27T15:49:14.455Z,17.12
2023-04-27T15:51:41.209Z,17.35
2023-04-27T15:54:07.686Z,16.86
2023-04-27T15:56:34.152Z,16.81
2023-04-27T15:59:00.658Z,16.58
2023-04-27T16:01:27.460Z,16.82
2023-04-27T16:03:54.393Z,16.58
2023-04-27T16:06:21.311Z,16.65
2023-04-27T16:08:47.988Z,16.57
2023-04-27T16:11:14.463Z,16.85
2023-04-27T16:13:41.066Z,16.71
2023-04-27T16:16:08.727Z,16.85
2023-04-27T16:18:35.967Z,16.69
2023-04-27T16:21:02.498Z,16.49
2023-04-27T16:23:29.090Z,16.66
2023-04-27T16:25:55.594Z,16.44
2023-04-27T16:28:22.064Z,16.52
2023-04-27T16:30:49.486Z,16.64
2023-04-27T16:33:16.236Z,16.65
2023-04-27T16:35:42.813Z,16.38
2023-04-27T16:38:09.264Z,16.79
2023-04-27T16:40:35.802Z,16.37
2023-04-27T16:43:02.942Z,16.67
2023-04-27T16:45:29.570Z,16.78
2023-04-27T16:47:56.136Z,16.70
2023-04-27T16:50:22.707Z,16.62
2023-04-27T16:52:49.887Z,16.71
2023-04-27T16:55:16.701Z,16.46
2023-04-27T16:57:43.146Z,16.71
2023-04-27T17:00:10.570Z,16.54
2023-04-27T17:02:37.332Z,16.57
2023-04-27T17:05:04.351Z,16.57
2023-04-27T17:07:32.647Z,16.60
2023-04-27T17:09:59.813Z,16.27
2023-04-27T17:12:26.784Z,16.44
2023-04-27T17:14:53.379Z,16.32
2023-04-27T17:17:20.049Z,16.49
2023-04-27T17:19:46.765Z,16.02
2023-04-27T17:22:14.779Z,16.36
2023-04-27T17:24:41.296Z,16.37
2023-04-27T17:27:07.820Z,16.50
2023-04-27T17:29:34.327Z,16.13
2023-04-27T17:32:07.991Z,16.09
2023-04-27T17:34:34.488Z,16.15
2023-04-27T17:37:01.497Z,16.06
2023-04-27T17:39:29.991Z,16.00
2023-04-27T17:41:57.055Z,16.03
2023-04-27T17:44:23.694Z,16.13
2023-04-27T17:46:52.191Z,15.98
2023-04-27T17:49:19.387Z,15.88
2023-04-27T17:51:48.158Z,15.96
2023-04-27T17:54:14.708Z,15.78
2023-04-27T17:56:41.794Z,15.88
2023-04-27T17:59:08.961Z,15.47
2023-04-27T18:01:35.676Z,15.42
2023-04-27T18:04:04.220Z,15.52
2023-04-27T18:06:31.999Z,15.50
2023-04-27T18:08:58.526Z,15.41
2023-04-27T18:11:28.885Z,15.40
2023-04-27T18:13:58.095Z,15.34
2023-04-27T18:16:24.914Z,15.00
2023-04-27T18:18:51.558Z,14.94
2023-04-27T18:21:18.015Z,14.74
2023-04-27T18:23:44.877Z,14.77
2023-04-27T18:26:11.755Z,14.81
2023-04-27T18:28:40.103Z,14.49
2023-04-27T18:31:21.536Z,14.46
2023-04-27T18:33:48.153Z,14.41
2023-04-27T18:36:14.714Z,14.55
2023-04-27T18:38:41.278Z,14.55
2023-04-27T18:41:07.904Z,14.33
2023-04-27T18:43:36.570Z,14.23
2023-04-27T18:46:04.585Z,13.88
2023-04-27T18:48:33.612Z,13.92
2023-04-27T18:51:01.051Z,13.94
2023-04-27T18:53:28.242Z,13.98
2023-04-27T18:55:55.109Z,13.89
2023-04-27T18:58:21.736Z,13.69
2023-04-27T19:00:48.272Z,13.79
2023-04-27T19:03:16.794Z,13.63
2023-04-27T19:05:44.076Z,13.68
2023-04-27T19:08:11.772Z,13.41
2023-04-27T19:10:41.569Z,13.38
2023-04-27T19:13:08.803Z,13.36
2023-04-27T19:15:36.501Z,13.24
2023-04-27T19:18:10.481Z,13.21
2023-04-27T19:20:40.651Z,13.12
2023-04-27T19:23:09.594Z,13.11
2023-04-27T19:25:36.521Z,12.96
2023-04-27T19:28:04.010Z,13.01
2023-04-27T19:30:31.468Z,12.98
2023-04-27T19:32:58.175Z,12.91
2023-04-27T19:35:26.364Z,12.84
2023-04-27T19:37:53.076Z,12.73
2023-04-27T19:40:19.550Z,12.70
2023-04-27T19:42:46.007Z,12.75
2023-04-27T19:45:12.700Z,12.79
2023-04-27T19:47:39.710Z,12.78
2023-04-27T19:50:06.855Z,12.78
2023-04-27T19:52:33.376Z,12.72
2023-04-27T19:54:59.967Z,12.87
2023-04-27T19:57:26.701Z,12.99
2023-04-27T19:59:53.187Z,13.04
2023-04-27T20:02:19.801Z,12.85
2023-04-27T20:04:47.058Z,13.02
2023-04-27T20:07:13.796Z,12.88
2023-04-27T20:09:40.372Z,12.90
2023-04-27T20:12:08.101Z,12.93
2023-04-27T20:14:37.611Z,12.63
2023-04-27T20:17:05.858Z,12.55
2023-04-27T20:19:33.824Z,12.59
2023-04-27T20:22:02.902Z,12.33
2023-04-27T20:24:29.819Z,12.32
2023-04-27T20:26:56.251Z,12.44
2023-04-27T20:29:22.908Z,12.34
2023-04-27T20:31:49.632Z,12.24
2023-04-27T20:34:16.391Z,12.42
2023-04-27T20:36:44.225Z,12.50
2023-04-27T20:39:11.913Z,12.45
2023-04-27T20:41:41.775Z,12.42
2023-04-27T20:44:09.305Z,11.91
2023-04-27T20:46:36.541Z,12.20
2023-04-27T20:49:04.645Z,12.02
2023-04-27T20:51:32.951Z,12.08
2023-04-27T20:53:59.757Z,12.08
2023-04-27T20:56:30.504Z,11.84
2023-04-27T20:58:57.538Z,12.08
2023-04-27T21:01:24.138Z,12.12
2023-04-27T21:03:50.875Z,12.18
2023-04-27T21:06:18.082Z,12.18
2023-04-27T21:08:44.708Z,12.04
2023-04-27T21:11:11.917Z,11.91
2023-04-27T21:13:38.378Z,11.48
2023-04-27T21:16:05.527Z,11.82
2023-04-27T21:18:31.995Z,11.95
2023-04-27T21:20:58.915Z,11.56
2023-04-27T21:23:25.707Z,11.85
2023-04-27T21:25:52.209Z,11.61
2023-04-27T21:28:18.863Z,11.44
2023-04-27T21:30:45.441Z,11.76
2023-04-27T21:33:12.526Z,11.66
2023-04-27T21:35:39.083Z,11.41
2023-04-27T21:38:05.896Z,11.52
2023-04-27T21:40:32.354Z,11.80
2023-04-27T21:42:58.848Z,11.79
2023-04-27T21:45:25.256Z,11.83
2023-04-27T21:47:51.975Z,11.51
2023-04-27T21:50:18.703Z,11.55
2023-04-27T21:52:45.468Z,11.72
2023-04-27T21:55:12.167Z,11.63
2023-04-27T21:57:38.688Z,11.42
2023-04-27T22:00:13.387Z,11.54
2023-04-27T22:02:42.493Z,11.97
2023-04-27T22:05:10.083Z,11.95
2023-04-27T22:07:37.733Z,11.81
2023-04-27T22:10:06.041Z,11.47
2023-04-27T22:12:33.395Z,11.70
2023-04-27T22:15:00.372Z,11.67
2023-04-27T22:17:27.687Z,11.57
2023-04-27T22:19:54.711Z,11.61
2023-04-27T22:22:21.219Z,11.72
2023-04-27T22:24:47.792Z,11.51
2023-04-27T22:27:14.267Z,11.59
2023-04-27T22:29:40.827Z,11.73
2023-04-27T22:32:07.581Z,11.77
2023-04-27T22:34:34.172Z,11.77
2023-04-27T22:37:01.981Z,11.60
2023-04-27T22:39:29.797Z,11.66
2023-04-27T22:41:56.428Z,11.61
2023-04-27T22:44:22.919Z,11.78
2023-04-27T22:46:49.402Z,11.54
2023-04-27T22:49:17.182Z,11.83
2023-04-27T22:51:43.751Z,11.95
2023-04-27T22:54:10.483Z,11.88
2023-04-27T22:56:36.970Z,11.95
2023-04-27T22:59:03.586Z,11.79
2023-04-27T23:01:30.198Z,11.54
2023-04-27T23:03:56.932Z,11.88
2023-04-27T23:06:23.467Z,12.06
2023-04-27T23:08:50.267Z,12.02
2023-04-27T23:11:18.723Z,12.00
2023-04-27T23:13:48.106Z,12.06
2023-04-27T23:16:14.877Z,12.00
2023-04-27T23:18:41.794Z,11.88
2023-04-27T23:21:10.121Z,11.65
2023-04-27T23:23:36.573Z,11.61
2023-04-27T23:26:03.132Z,11.87
2023-04-27T23:28:29.591Z,11.56
2023-04-27T23:30:56.157Z,11.77
2023-04-27T23:33:22.816Z,11.82
2023-04-27T23:35:49.360Z,11.75
2023-04-27T23:38:15.897Z,11.87
2023-04-27T23:40:42.349Z,11.67
2023-04-27T23:43:08.782Z,11.57
2023-04-27T23:45:35.216Z,11.68
2023-04-27T23:48:01.719Z,11.85
2023-04-27T23:50:28.214Z,11.56
2023-04-27T23:52:54.638Z,11.80
2023-04-27T23:55:21.265Z,11.53
2023-04-27T23:57:47.878Z,11.65
